Time;durP1;ratioP1;P1;durP2;ratioP2;P2;SDS_P1;SDS_P2;PMS_P1;PMS_P2;Temp;Humidity;BMP_temperature;BMP_pressure;BME280_temperature;BME280_humidity;BME280_pressure;Samples;Min_cycle;Max_cycle;Signal;HPM_P1;HPM_P2
2022/04/24 00:00:17;;;;;;;18.25;11.15;;;13.90;99.90;;;;;;5120368;23;20152;-94
2022/04/24 00:02:20;;;;;;;17.40;10.70;;;13.90;99.90;;;;;;5120253;23;20159;-95
2022/04/24 00:04:23;;;;;;;19.13;11.25;;;13.90;99.90;;;;;;5144438;23;20510;-95
2022/04/24 00:06:24;;;;;;;16.35;9.85;;;13.90;99.90;;;;;;5096618;23;20240;-95
2022/04/24 00:08:28;;;;;;;18.10;11.02;;;13.80;99.90;;;;;;5095336;23;20264;-95
2022/04/24 00:10:29;;;;;;;17.03;10.90;;;13.80;99.90;;;;;;5095010;23;20219;-96
2022/04/24 00:12:29;;;;;;;16.45;10.90;;;13.80;99.90;;;;;;5095659;23;20145;-95
2022/04/24 00:14:30;;;;;;;17.65;11.45;;;13.80;99.90;;;;;;5120407;23;20163;-95
2022/04/24 00:16:31;;;;;;;17.58;11.00;;;13.90;99.90;;;;;;5120107;23;20195;-95
2022/04/24 00:18:32;;;;;;;15.27;9.95;;;13.90;99.90;;;;;;5094857;23;20196;-95
2022/04/24 00:20:34;;;;;;;21.73;11.18;;;14.00;99.90;;;;;;5119515;23;20480;-94
2022/04/24 00:22:35;;;;;;;17.55;10.05;;;14.00;99.90;;;;;;5095018;23;20219;-95
2022/04/24 00:24:36;;;;;;;18.23;10.45;;;13.90;99.90;;;;;;5120025;23;20156;-94
2022/04/24 00:26:38;;;;;;;15.37;10.23;;;13.80;99.90;;;;;;5094931;23;20227;-94
2022/04/24 00:28:39;;;;;;;15.73;9.93;;;13.90;99.90;;;;;;5094531;23;20177;-94
2022/04/24 00:30:40;;;;;;;16.58;10.18;;;13.80;99.90;;;;;;5119408;23;20211;-95
2022/04/24 00:32:40;;;;;;;14.55;9.18;;;13.90;99.90;;;;;;5095177;23;20157;-94
2022/04/24 00:34:41;;;;;;;14.77;9.52;;;14.00;99.90;;;;;;5095030;23;20153;-95
2022/04/24 00:36:44;;;;;;;18.40;9.60;;;14.00;99.90;;;;;;5094773;23;20156;-95
2022/04/24 00:38:44;;;;;;;15.50;9.93;;;13.90;99.90;;;;;;5119516;23;20192;-94
2022/04/24 00:40:47;;;;;;;13.18;9.02;;;14.00;99.90;;;;;;5094784;23;20191;-94
2022/04/24 00:42:48;;;;;;;17.48;10.25;;;13.90;99.90;;;;;;5095431;23;20149;-95
2022/04/24 00:44:48;;;;;;;14.50;9.60;;;13.80;99.90;;;;;;5095509;23;20612;-94
2022/04/24 00:47:19;;;;;;;14.15;9.00;;;13.70;99.90;;;;;;5119257;23;20603;-94
2022/04/24 00:49:23;;;;;;;14.32;9.20;;;13.70;99.90;;;;;;5095358;23;20152;-94
2022/04/24 00:51:27;;;;;;;12.05;8.38;;;13.70;99.90;;;;;;5096373;23;20145;-95
2022/04/24 00:53:28;;;;;;;13.18;8.82;;;13.60;99.90;;;;;;5127332;23;20156;-95
2022/04/24 00:55:30;;;;;;;13.10;8.10;;;13.50;99.90;;;;;;5105471;23;20155;-94
2022/04/24 00:57:37;;;;;;;12.57;8.40;;;13.50;99.90;;;;;;5100598;23;20734;-95
2022/04/24 00:59:48;;;;;;;14.53;8.13;;;13.50;99.90;;;;;;5120836;23;20153;-95
2022/04/24 01:01:51;;;;;;;11.43;8.27;;;13.40;99.90;;;;;;5120094;23;20148;-95
2022/04/24 01:03:53;;;;;;;14.80;9.00;;;13.40;99.90;;;;;;5095739;23;20153;-95
2022/04/24 01:05:55;;;;;;;13.55;8.18;;;13.30;99.90;;;;;;5095331;23;20153;-94
2022/04/24 01:07:57;;;;;;;13.60;7.50;;;13.30;99.90;;;;;;5119115;23;20168;-95
2022/04/24 01:10:03;;;;;;;10.98;7.22;;;13.30;99.90;;;;;;5095543;23;20167;-94
2022/04/24 01:12:08;;;;;;;10.85;7.50;;;13.40;99.90;;;;;;5145001;23;20155;-95
2022/04/24 01:14:20;;;;;;;12.35;7.45;;;13.30;99.90;;;;;;5095351;23;20145;-95
2022/04/24 01:16:21;;;;;;;12.55;6.72;;;13.40;99.90;;;;;;5094897;23;20175;-95
2022/04/24 01:18:29;;;;;;;16.63;7.18;;;13.40;99.90;;;;;;5119765;23;20216;-95
2022/04/24 01:20:29;;;;;;;9.40;6.50;;;13.40;99.90;;;;;;5119743;23;20152;-95
2022/04/24 01:22:30;;;;;;;9.23;6.10;;;13.40;99.90;;;;;;5120483;23;20163;-94
2022/04/24 01:24:39;;;;;;;12.30;5.90;;;13.50;99.90;;;;;;5120284;23;20230;-95
2022/04/24 01:26:40;;;;;;;9.48;6.45;;;13.50;99.90;;;;;;5120363;23;20211;-94
2022/04/24 01:28:50;;;;;;;8.90;5.72;;;13.50;99.90;;;;;;5094809;23;20180;-95
2022/04/24 01:30:53;;;;;;;10.13;6.07;;;13.50;99.90;;;;;;5119012;23;20614;-94
2022/04/24 01:32:54;;;;;;;10.27;5.97;;;13.60;99.90;;;;;;5094885;23;20188;-95
2022/04/24 01:34:55;;;;;;;11.18;6.25;;;13.60;99.90;;;;;;5095124;23;20152;-95
2022/04/24 01:36:55;;;;;;;10.05;6.28;;;13.60;99.90;;;;;;5093902;23;20231;-96
2022/04/24 01:38:56;;;;;;;9.50;6.22;;;13.60;99.90;;;;;;5094629;23;20181;-94
2022/04/24 01:40:57;;;;;;;8.60;6.00;;;13.70;99.90;;;;;;5094477;23;20207;-94
2022/04/24 01:42:58;;;;;;;11.55;6.78;;;13.60;99.90;;;;;;5119727;23;20227;-95
2022/04/24 01:44:59;;;;;;;7.32;5.40;;;13.50;99.90;;;;;;5118909;23;20548;-95
2022/04/24 01:47:00;;;;;;;8.03;5.50;;;13.50;99.90;;;;;;5119154;23;20187;-94
2022/04/24 01:49:00;;;;;;;11.90;5.43;;;13.40;99.90;;;;;;5094532;23;20264;-95
2022/04/24 01:51:05;;;;;;;7.27;4.83;;;13.40;99.90;;;;;;5118705;23;20152;-94
2022/04/24 01:53:06;;;;;;;7.65;5.18;;;13.40;99.90;;;;;;5095505;23;20153;-94
2022/04/24 01:55:06;;;;;;;7.00;5.00;;;13.30;99.90;;;;;;5094222;23;20153;-95
2022/04/24 01:57:07;;;;;;;7.28;4.72;;;13.30;99.90;;;;;;5094264;23;20219;-95
2022/04/24 01:59:08;;;;;;;8.60;4.40;;;13.30;99.90;;;;;;5094514;23;20172;-95
2022/04/24 02:01:09;;;;;;;8.87;4.43;;;13.30;99.90;;;;;;5118581;23;20224;-95
2022/04/24 02:03:10;;;;;;;6.93;4.30;;;13.30;99.90;;;;;;5094534;23;20208;-94
2022/04/24 02:05:11;;;;;;;8.85;4.75;;;13.20;99.90;;;;;;5118570;23;20147;-95
2022/04/24 02:07:12;;;;;;;6.37;4.13;;;13.20;99.90;;;;;;5093790;23;20153;-94
2022/04/24 02:09:15;;;;;;;7.57;4.70;;;13.00;99.90;;;;;;5094007;23;20165;-95
2022/04/24 02:11:16;;;;;;;7.47;4.57;;;13.00;99.90;;;;;;5095162;23;20671;-94
2022/04/24 02:13:17;;;;;;;8.43;4.43;;;12.90;99.90;;;;;;5093801;23;20148;-96
2022/04/24 02:15:18;;;;;;;7.17;4.20;;;12.90;99.90;;;;;;5119359;23;20179;-94
2022/04/24 02:17:19;;;;;;;7.10;4.10;;;12.90;99.90;;;;;;5118539;23;20263;-94
2022/04/24 02:19:21;;;;;;;6.07;3.90;;;12.90;99.90;;;;;;5119101;23;20152;-95
2022/04/24 02:21:24;;;;;;;9.20;4.60;;;12.80;99.90;;;;;;5095932;23;20219;-94
2022/04/24 02:23:24;;;;;;;7.47;4.23;;;12.80;99.90;;;;;;5094993;23;20153;-94
2022/04/24 02:25:26;;;;;;;7.40;3.60;;;12.70;99.90;;;;;;5118537;23;20156;-95
2022/04/24 02:27:27;;;;;;;6.40;3.70;;;12.70;99.90;;;;;;5119145;23;20148;-94
2022/04/24 02:29:29;;;;;;;7.73;3.90;;;12.60;99.90;;;;;;5119542;23;20159;-94
2022/04/24 02:31:30;;;;;;;6.10;3.93;;;12.70;99.90;;;;;;5119932;23;20156;-95
2022/04/24 02:33:31;;;;;;;8.80;4.30;;;12.60;99.90;;;;;;5093754;23;20157;-95
2022/04/24 02:35:34;;;;;;;10.33;4.27;;;12.60;99.90;;;;;;5093870;23;20153;-94
2022/04/24 02:37:35;;;;;;;6.30;4.17;;;12.50;99.90;;;;;;5094205;23;20191;-94
2022/04/24 02:39:38;;;;;;;6.30;4.10;;;12.50;99.90;;;;;;5094095;23;20165;-95
2022/04/24 02:41:39;;;;;;;6.60;3.80;;;12.50;99.90;;;;;;5093451;23;20149;-96
2022/04/24 02:43:39;;;;;;;10.70;4.43;;;12.40;99.90;;;;;;5093855;23;20161;-94
2022/04/24 02:45:42;;;;;;;8.83;4.07;;;12.40;99.90;;;;;;5119341;23;20168;-94
2022/04/24 02:47:43;;;;;;;8.53;3.57;;;12.40;99.90;;;;;;5118679;23;20175;-94
2022/04/24 02:49:46;;;;;;;6.87;4.00;;;12.40;99.90;;;;;;5118230;23;20156;-95
2022/04/24 02:51:47;;;;;;;6.50;4.17;;;12.40;99.90;;;;;;5093752;23;20213;-94
2022/04/24 02:53:48;;;;;;;8.27;3.90;;;12.30;99.90;;;;;;5118430;23;20580;-95
2022/04/24 02:55:48;;;;;;;6.27;3.60;;;12.30;99.90;;;;;;5117684;23;20629;-94
2022/04/24 02:57:52;;;;;;;6.20;3.80;;;12.30;99.90;;;;;;5117950;23;20200;-94
2022/04/24 02:59:55;;;;;;;5.80;3.83;;;12.20;99.90;;;;;;5094650;23;20148;-94
2022/04/24 03:01:56;;;;;;;5.60;4.00;;;12.20;99.90;;;;;;5093768;23;20161;-93
2022/04/24 03:03:57;;;;;;;6.20;3.50;;;12.10;99.90;;;;;;5093335;23;20212;-94
2022/04/24 03:05:58;;;;;;;6.23;3.80;;;12.10;99.90;;;;;;5117945;23;20152;-94
2022/04/24 03:07:59;;;;;;;6.33;3.80;;;12.10;99.90;;;;;;5118183;23;20649;-93
2022/04/24 03:10:00;;;;;;;6.03;4.00;;;12.00;99.90;;;;;;5093369;23;20167;-95
2022/04/24 03:12:01;;;;;;;5.40;3.67;;;12.10;99.90;;;;;;5093935;23;20149;-95
2022/04/24 03:14:02;;;;;;;6.00;3.97;;;12.00;99.90;;;;;;5093495;23;20159;-95
2022/04/24 03:16:03;;;;;;;7.67;3.67;;;12.00;99.90;;;;;;5118042;23;20145;-93
2022/04/24 03:18:05;;;;;;;10.03;3.73;;;12.00;99.90;;;;;;5118403;23;20196;-94
2022/04/24 03:20:08;;;;;;;5.57;3.73;;;11.90;99.90;;;;;;5093810;23;20481;-94
2022/04/24 03:22:09;;;;;;;5.50;3.90;;;11.90;99.90;;;;;;5093681;23;20207;-95
2022/04/24 03:24:12;;;;;;;7.37;4.23;;;11.90;99.90;;;;;;5094658;23;20160;-95
2022/04/24 03:26:13;;;;;;;6.03;4.20;;;11.80;99.90;;;;;;5093489;23;20149;-94
2022/04/24 03:28:14;;;;;;;5.60;3.40;;;11.80;99.90;;;;;;5093288;23;20169;-95
2022/04/24 03:30:15;;;;;;;6.07;4.03;;;11.70;99.90;;;;;;5069079;23;20158;-94
2022/04/24 03:32:19;;;;;;;5.97;3.60;;;11.70;99.90;;;;;;5118915;23;20540;-94
2022/04/24 03:34:27;;;;;;;6.67;4.20;;;11.70;99.90;;;;;;5095002;23;20484;-93
2022/04/24 03:36:36;;;;;;;4.90;3.60;;;11.70;99.90;;;;;;5094989;23;20155;-94
2022/04/24 03:38:36;;;;;;;5.33;3.40;;;11.60;99.90;;;;;;5119952;23;20199;-94
2022/04/24 03:40:37;;;;;;;7.53;3.93;;;11.60;99.90;;;;;;5094813;23;20171;-94
2022/04/24 03:42:38;;;;;;;6.77;4.17;;;11.60;99.90;;;;;;5094808;23;20188;-94
2022/04/24 03:44:39;;;;;;;5.67;4.00;;;11.60;99.90;;;;;;5119902;23;20152;-94
2022/04/24 03:46:41;;;;;;;5.70;3.83;;;11.70;99.90;;;;;;5095432;23;20478;-94
2022/04/24 03:48:44;;;;;;;6.90;3.60;;;11.60;99.90;;;;;;5120017;23;20183;-94
2022/04/24 03:50:45;;;;;;;5.63;3.47;;;11.60;99.90;;;;;;5095506;23;20145;-94
2022/04/24 03:52:46;;;;;;;5.27;3.43;;;11.60;99.90;;;;;;5095402;23;20192;-94
2022/04/24 03:54:47;;;;;;;5.23;3.47;;;11.60;99.90;;;;;;5094718;23;20152;-93
2022/04/24 03:56:47;;;;;;;6.07;4.27;;;11.60;99.90;;;;;;5119493;23;20156;-94
2022/04/24 03:58:48;;;;;;;6.10;4.17;;;11.70;99.90;;;;;;5095096;23;20197;-94
2022/04/24 04:00:49;;;;;;;6.33;3.90;;;11.70;99.90;;;;;;5095039;23;20149;-94
2022/04/24 04:02:50;;;;;;;5.57;3.80;;;11.70;99.90;;;;;;5094986;23;20160;-95
2022/04/24 04:04:51;;;;;;;7.50;4.07;;;11.70;99.90;;;;;;5119327;23;20209;-94
2022/04/24 04:06:52;;;;;;;9.67;3.63;;;11.80;99.90;;;;;;5095292;23;20160;-94
2022/04/24 04:08:53;;;;;;;4.93;3.70;;;11.80;99.90;;;;;;5094965;23;20184;-94
2022/04/24 04:10:54;;;;;;;7.27;3.70;;;11.80;99.90;;;;;;5095232;23;20528;-94
2022/04/24 04:12:55;;;;;;;5.93;3.93;;;11.80;99.90;;;;;;5144554;23;20215;-95
2022/04/24 04:14:56;;;;;;;6.10;4.03;;;11.80;99.90;;;;;;5094789;23;20149;-95
2022/04/24 04:16:57;;;;;;;5.20;3.73;;;11.80;99.90;;;;;;5119650;23;20148;-94
2022/04/24 04:18:57;;;;;;;4.80;3.60;;;11.70;99.90;;;;;;5119667;23;20188;-94
2022/04/24 04:20:59;;;;;;;6.87;3.93;;;11.80;99.90;;;;;;5095953;23;20527;-93
2022/04/24 04:22:59;;;;;;;7.37;4.27;;;11.80;99.90;;;;;;5096562;23;20153;-93
2022/04/24 04:25:00;;;;;;;5.67;3.77;;;11.80;99.90;;;;;;5097030;23;20145;-94
2022/04/24 04:27:01;;;;;;;5.87;3.70;;;11.90;99.90;;;;;;5095748;23;20607;-94
2022/04/24 04:29:02;;;;;;;5.37;3.73;;;11.90;99.90;;;;;;5094904;23;20224;-95
2022/04/24 04:31:03;;;;;;;6.50;4.20;;;11.90;99.90;;;;;;5094358;23;20484;-96
2022/04/24 04:33:04;;;;;;;4.93;3.70;;;11.90;99.90;;;;;;5095020;23;20462;-94
2022/04/24 04:35:09;;;;;;;5.83;4.27;;;11.90;99.90;;;;;;5094453;23;20184;-95
2022/04/24 04:37:12;;;;;;;5.10;3.87;;;11.80;99.90;;;;;;5094849;23;20611;-94
2022/04/24 04:39:15;;;;;;;5.33;3.93;;;11.80;99.90;;;;;;5094687;23;20204;-95
2022/04/24 04:41:18;;;;;;;6.20;4.03;;;11.80;99.90;;;;;;5119279;23;20634;-94
2022/04/24 04:43:21;;;;;;;9.17;4.33;;;11.80;99.90;;;;;;5094334;23;20160;-95
2022/04/24 04:45:22;;;;;;;8.30;4.40;;;11.90;99.90;;;;;;5095262;23;20168;-94
2022/04/24 04:47:25;;;;;;;5.67;3.80;;;11.80;99.90;;;;;;5094440;23;20214;-94
2022/04/24 04:49:28;;;;;;;6.10;3.77;;;11.90;99.90;;;;;;5086733;23;20164;-94
2022/04/24 04:51:29;;;;;;;5.20;3.90;;;11.80;99.90;;;;;;5095327;23;20149;-94
2022/04/24 04:53:47;;;;;;;6.00;3.90;;;11.80;99.90;;;;;;5094999;23;20157;-95
2022/04/24 04:55:48;;;;;;;5.43;3.70;;;11.80;99.90;;;;;;5118814;23;20238;-94
2022/04/24 04:57:54;;;;;;;5.83;4.17;;;11.90;99.90;;;;;;5094670;23;20207;-95
2022/04/24 04:59:55;;;;;;;5.50;3.97;;;11.90;99.90;;;;;;5094288;23;20277;-94
2022/04/24 05:01:56;;;;;;;6.17;4.17;;;11.90;99.90;;;;;;5094314;23;20651;-95
2022/04/24 05:03:58;;;;;;;8.80;4.23;;;12.00;99.90;;;;;;5094385;23;20149;-95
2022/04/24 05:05:59;;;;;;;6.17;4.50;;;12.00;99.90;;;;;;5094631;23;20153;-95
2022/04/24 05:08:00;;;;;;;5.50;3.83;;;12.00;99.90;;;;;;5093946;23;20606;-94
2022/04/24 05:10:02;;;;;;;7.10;4.40;;;12.10;99.90;;;;;;5119114;23;20156;-94
2022/04/24 05:12:07;;;;;;;6.10;4.03;;;12.10;99.90;;;;;;5094443;23;20638;-93
2022/04/24 05:14:08;;;;;;;5.93;4.10;;;12.10;99.90;;;;;;5094806;23;20149;-93
2022/04/24 05:16:09;;;;;;;6.43;4.47;;;12.10;99.90;;;;;;5094109;23;20157;-93
2022/04/24 05:18:10;;;;;;;5.60;3.97;;;12.10;99.90;;;;;;5093949;23;20745;-95
2022/04/24 05:20:12;;;;;;;6.83;4.70;;;12.20;99.90;;;;;;5118618;23;20152;-93
2022/04/24 05:22:12;;;;;;;6.10;4.40;;;12.10;99.90;;;;;;5095510;23;20177;-96
2022/04/24 05:24:13;;;;;;;8.67;3.93;;;12.10;99.90;;;;;;5094324;23;20156;-95
2022/04/24 05:26:17;;;;;;;7.33;4.50;;;12.10;99.90;;;;;;5094217;23;20164;-94
2022/04/24 05:28:20;;;;;;;8.53;4.57;;;12.00;99.90;;;;;;5119460;23;20184;-94
2022/04/24 05:30:23;;;;;;;5.73;4.17;;;12.00;99.90;;;;;;5119738;23;20670;-94
2022/04/24 05:32:36;;;;;;;5.00;4.07;;;11.90;99.90;;;;;;5094588;23;20161;-94
2022/04/24 05:34:44;;;;;;;6.10;4.40;;;11.90;99.90;;;;;;5094312;23;20183;-95
2022/04/24 05:36:45;;;;;;;6.00;3.93;;;12.00;99.90;;;;;;5118851;23;20158;-94
2022/04/24 05:38:46;;;;;;;5.33;4.17;;;12.00;99.90;;;;;;5094364;23;20643;-95
2022/04/24 05:40:46;;;;;;;8.40;4.63;;;12.10;99.90;;;;;;5094209;23;20236;-95
2022/04/24 05:42:53;;;;;;;5.67;4.07;;;12.00;99.90;;;;;;5118601;23;20488;-94
2022/04/24 05:44:59;;;;;;;7.83;4.43;;;12.10;99.90;;;;;;5118662;23;20223;-94
2022/04/24 05:46:59;;;;;;;7.03;4.63;;;12.00;99.90;;;;;;5118644;23;20163;-96
2022/04/24 05:49:02;;;;;;;7.23;4.50;;;12.10;99.90;;;;;;5118754;23;20180;-94
2022/04/24 05:51:03;;;;;;;7.97;4.97;;;12.10;99.90;;;;;;5095425;23;20149;-95
2022/04/24 05:55:05;;;;;;;6.40;4.60;;;12.20;99.90;;;;;;5068902;23;20154;-95
2022/04/24 05:57:08;;;;;;;5.50;4.57;;;12.20;99.90;;;;;;5045117;23;20731;-94
2022/04/24 05:59:11;;;;;;;6.80;4.60;;;12.30;99.90;;;;;;5069704;23;20218;-93
2022/04/24 06:01:13;;;;;;;6.40;4.50;;;12.30;99.90;;;;;;5069399;23;20150;-94
2022/04/24 06:03:14;;;;;;;7.60;4.73;;;12.30;99.90;;;;;;5044668;23;20190;-96
2022/04/24 06:05:14;;;;;;;6.07;4.47;;;12.40;99.90;;;;;;5069079;23;20628;-94
2022/04/24 06:07:15;;;;;;;8.70;4.90;;;12.50;99.90;;;;;;5045061;23;20573;-94
2022/04/24 06:09:18;;;;;;;7.63;5.27;;;12.50;99.90;;;;;;5044825;23;20158;-94
2022/04/24 06:11:19;;;;;;;6.03;4.73;;;12.50;99.90;;;;;;5045180;23;20161;-94
2022/04/24 06:13:20;;;;;;;7.30;4.53;;;12.50;99.90;;;;;;5069083;23;20489;-94
2022/04/24 06:15:24;;;;;;;7.00;4.70;;;12.50;99.90;;;;;;5068658;23;20240;-94
2022/04/24 06:17:25;;;;;;;5.27;4.23;;;12.50;99.90;;;;;;5044377;23;20286;-95
2022/04/24 06:19:27;;;;;;;6.17;4.90;;;12.40;99.90;;;;;;5044788;23;20158;-95
2022/04/24 06:21:28;;;;;;;7.10;5.20;;;12.50;99.90;;;;;;5093631;23;20156;-94
2022/04/24 06:23:31;;;;;;;7.10;5.00;;;12.60;99.90;;;;;;5044544;23;20162;-94
2022/04/24 06:25:38;;;;;;;6.37;5.00;;;12.60;99.90;;;;;;5053219;23;20707;-94
2022/04/24 06:27:42;;;;;;;7.37;5.27;;;12.60;99.90;;;;;;5094511;23;20654;-94
2022/04/24 06:29:42;;;;;;;5.87;4.20;;;12.60;99.90;;;;;;5143579;23;20144;-94
2022/04/24 06:31:43;;;;;;;8.83;4.67;;;12.60;99.90;;;;;;5118269;23;20156;-94
2022/04/24 06:33:44;;;;;;;7.10;4.90;;;12.70;99.90;;;;;;5093709;23;20175;-94
2022/04/24 06:35:47;;;;;;;5.90;4.57;;;12.80;99.90;;;;;;5093777;23;20153;-95
2022/04/24 06:37:53;;;;;;;6.47;4.80;;;12.80;99.90;;;;;;5093801;23;20873;-94
2022/04/24 06:40:01;;;;;;;6.23;4.60;;;12.90;99.90;;;;;;5119031;23;20186;-95
2022/04/24 06:42:05;;;;;;;7.60;5.27;;;12.80;99.90;;;;;;5093953;23;20623;-94
2022/04/24 06:44:09;;;;;;;8.33;5.57;;;12.80;99.90;;;;;;5094032;23;20183;-94
2022/04/24 06:46:10;;;;;;;6.90;5.47;;;12.80;99.90;;;;;;5093591;23;20164;-94
2022/04/24 06:48:16;;;;;;;7.07;4.87;;;12.80;99.90;;;;;;5094564;23;20172;-95
2022/04/24 06:50:17;;;;;;;8.02;5.75;;;12.80;99.90;;;;;;5118796;23;20148;-95
2022/04/24 06:52:20;;;;;;;7.47;5.30;;;12.80;99.90;;;;;;5119308;23;20149;-95
2022/04/24 06:54:21;;;;;;;7.30;5.83;;;12.80;99.90;;;;;;5094665;23;20658;-93
2022/04/24 06:56:25;;;;;;;6.27;5.00;;;12.80;99.90;;;;;;5118925;23;20156;-95
2022/04/24 06:58:26;;;;;;;10.30;5.47;;;12.90;99.90;;;;;;5092344;23;20192;-93
2022/04/24 07:00:32;;;;;;;7.33;5.50;;;13.00;99.90;;;;;;5119211;23;20212;-94
2022/04/24 07:02:37;;;;;;;7.03;5.60;;;13.10;99.90;;;;;;5094609;23;20188;-94
2022/04/24 07:04:40;;;;;;;9.57;5.53;;;13.10;99.90;;;;;;5118700;23;20226;-94
2022/04/24 07:06:49;;;;;;;9.37;6.40;;;13.10;99.90;;;;;;5096344;23;20152;-94
2022/04/24 07:09:27;;;;;;;7.70;5.60;;;13.20;99.90;;;;;;5122423;23;20631;-96
2022/04/24 07:11:40;;;;;;;9.60;5.82;;;13.50;99.90;;;;;;5100238;23;20679;-95
2022/04/24 07:14:19;;;;;;;7.80;5.72;;;14.30;99.90;;;;;;5103770;23;20153;-96
2022/04/24 07:16:46;;;;;;;8.90;5.35;;;14.90;99.90;;;;;;5098207;23;20152;-94
2022/04/24 07:19:13;;;;;;;6.38;5.40;;;15.20;99.90;;;;;;5124250;23;20179;-95
2022/04/24 07:21:49;;;;;;;6.15;5.20;;;15.30;99.90;;;;;;5125586;23;20339;-94
2022/04/24 07:24:01;;;;;;;7.78;6.30;;;15.40;99.90;;;;;;5038621;23;20742;-95
2022/04/24 07:27:03;;;;;;;8.65;5.50;;;15.70;99.90;;;;;;5099879;23;20612;-95
2022/04/24 07:29:21;;;;;;;7.20;5.85;;;15.80;99.90;;;;;;5136545;23;20175;-95
2022/04/24 07:31:24;;;;;;;5.93;5.32;;;16.00;99.90;;;;;;5097993;23;20606;-96
2022/04/24 07:33:28;;;;;;;7.13;6.00;;;16.00;99.90;;;;;;5122233;23;20148;-95
2022/04/24 07:35:43;;;;;;;8.43;6.18;;;16.00;99.90;;;;;;5123401;23;20198;-96
2022/04/24 07:37:56;;;;;;;7.40;5.57;;;15.80;99.90;;;;;;5097133;23;20226;-95
2022/04/24 07:40:16;;;;;;;8.13;5.95;;;15.90;99.90;;;;;;5098326;23;20152;-96
2022/04/24 07:42:29;;;;;;;10.50;5.68;;;16.00;99.90;;;;;;5123136;23;20156;-96
2022/04/24 07:44:39;;;;;;;10.23;6.05;;;16.10;99.90;;;;;;5098722;23;20536;-95
2022/04/24 07:46:39;;;;;;;7.65;5.85;;;16.10;99.90;;;;;;5122931;23;20163;-94
2022/04/24 07:49:06;;;;;;;8.88;6.03;;;16.10;99.90;;;;;;5097974;23;20169;-95
2022/04/24 07:51:11;;;;;;;7.28;5.60;;;16.30;99.90;;;;;;5092169;23;20595;-95
2022/04/24 07:53:13;;;;;;;7.50;5.82;;;16.40;99.90;;;;;;5100960;23;20149;-95
2022/04/24 07:55:24;;;;;;;6.50;5.30;;;16.50;99.90;;;;;;5103646;23;20156;-94
2022/04/24 07:57:51;;;;;;;10.57;5.80;;;16.50;99.90;;;;;;5103079;23;20287;-96
2022/04/24 08:00:15;;;;;;;8.32;6.32;;;16.60;99.90;;;;;;5121685;23;20267;-95
2022/04/24 08:02:16;;;;;;;8.55;6.30;;;16.60;99.90;;;;;;5087218;23;20169;-95
2022/04/24 08:04:43;;;;;;;9.80;6.30;;;16.60;99.90;;;;;;5122614;23;20226;-95
2022/04/24 08:09:17;;;;;;;8.43;6.18;;;16.70;99.90;;;;;;5117965;23;20172;-95
2022/04/24 08:11:18;;;;;;;10.52;5.60;;;16.60;99.90;;;;;;5096299;23;20227;-93
2022/04/24 08:13:38;;;;;;;7.72;6.30;;;16.80;99.90;;;;;;5121384;23;20485;-96
2022/04/24 08:19:21;;;;;;;7.25;5.75;;;16.80;99.90;;;;;;5121891;23;20191;-96
2022/04/24 08:22:02;;;;;;;9.13;6.03;;;17.00;99.90;;;;;;5122852;23;20203;-96
2022/04/24 08:24:39;;;;;;;9.27;5.93;;;17.40;99.90;;;;;;5047790;23;20162;-96
2022/04/24 08:26:53;;;;;;;;;;;;;;;;;;;;;
2022/04/24 08:29:34;;;;;;;8.57;6.03;;;17.50;99.90;;;;;;5080590;23;20171;-95
2022/04/24 08:31:43;;;;;;;8.68;6.20;;;17.70;99.90;;;;;;5096899;23;20239;-96
2022/04/24 08:34:13;;;;;;;;;;;;;;;;;;;;;
2022/04/24 08:39:32;;;;;;;8.23;6.55;;;17.60;99.90;;;;;;5119114;23;20172;-94
2022/04/24 08:42:11;;;;;;;7.55;6.05;;;17.90;99.90;;;;;;5119949;23;20155;-96
2022/04/24 08:44:20;;;;;;;15.07;6.93;;;17.80;99.90;;;;;;5096968;23;20211;-95
2022/04/24 08:46:36;;;;;;;13.38;6.22;;;17.80;99.90;;;;;;5094949;23;20260;-95
2022/04/24 08:48:45;;;;;;;7.72;6.38;;;17.50;99.90;;;;;;5096229;23;20176;-95
2022/04/24 08:50:47;;;;;;;8.23;6.05;;;17.50;99.90;;;;;;5120611;23;20148;-95
2022/04/24 08:52:49;;;;;;;8.30;6.18;;;17.50;99.90;;;;;;5121295;23;20227;-95
2022/04/24 08:54:59;;;;;;;6.78;5.63;;;17.50;99.90;;;;;;5120326;23;20148;-95
2022/04/24 08:57:03;;;;;;;7.70;6.57;;;17.40;99.90;;;;;;5119400;23;20208;-95
2022/04/24 08:59:08;;;;;;;9.18;5.70;;;17.30;99.90;;;;;;5119387;23;20229;-96
2022/04/24 09:01:17;;;;;;;9.30;6.53;;;17.30;99.90;;;;;;5096465;23;20153;-95
2022/04/24 09:03:20;;;;;;;8.25;6.05;;;17.40;99.90;;;;;;5120571;23;20207;-95
2022/04/24 09:05:41;;;;;;;9.98;6.28;;;17.40;99.90;;;;;;5119733;23;20591;-95
2022/04/24 09:07:45;;;;;;;10.45;6.68;;;17.40;99.90;;;;;;5120062;23;20204;-95
2022/04/24 09:09:49;;;;;;;9.82;6.53;;;17.30;99.90;;;;;;5094869;23;20577;-94
2022/04/24 09:11:52;;;;;;;12.25;6.72;;;17.40;99.90;;;;;;5095440;23;20220;-94
2022/04/24 09:16:13;;;;;;;9.02;6.30;;;17.20;99.90;;;;;;5144643;23;20155;-95
2022/04/24 09:18:13;;;;;;;8.48;6.22;;;17.30;99.90;;;;;;5095109;23;20231;-95
2022/04/24 09:20:26;;;;;;;7.00;5.70;;;17.50;99.90;;;;;;5094970;23;20149;-95
2022/04/24 09:22:38;;;;;;;12.90;6.25;;;17.70;99.90;;;;;;5120518;23;20159;-95
2022/04/24 09:24:59;;;;;;;17.55;6.43;;;18.10;99.90;;;;;;5096200;23;20287;-96
2022/04/24 09:27:05;;;;;;;9.57;6.22;;;17.90;99.90;;;;;;5120605;23;20144;-96
2022/04/24 09:29:12;;;;;;;9.40;6.55;;;17.90;99.90;;;;;;5119699;23;20721;-95
2022/04/24 09:31:16;;;;;;;8.10;6.35;;;17.90;99.90;;;;;;5094710;23;20153;-94
2022/04/24 09:33:16;;;;;;;8.38;6.13;;;17.90;99.90;;;;;;5144206;23;20293;-96
2022/04/24 09:35:29;;;;;;;8.35;6.60;;;18.10;99.90;;;;;;5094736;23;20152;-95
2022/04/24 09:38:03;;;;;;;11.38;7.00;;;18.00;99.90;;;;;;5115269;23;20160;-95
2022/04/24 09:40:08;;;;;;;9.75;6.30;;;17.90;99.90;;;;;;5075917;23;20612;-95
2022/04/24 09:42:11;;;;;;;7.85;6.55;;;17.80;99.90;;;;;;5119259;23;20148;-95
2022/04/24 09:44:19;;;;;;;7.45;5.72;;;17.80;99.90;;;;;;5094837;23;20176;-95
2022/04/24 09:46:38;;;;;;;8.75;6.18;;;17.90;99.90;;;;;;5094322;23;20160;-95
2022/04/24 09:48:57;;;;;;;6.82;5.70;;;18.20;99.90;;;;;;5119093;23;20176;-95
2022/04/24 09:51:23;;;;;;;8.02;6.03;;;18.30;99.90;;;;;;5096360;23;20153;-96
2022/04/24 09:54:15;;;;;;;8.95;6.22;;;18.30;99.90;;;;;;5121649;23;20179;-96
2022/04/24 09:56:22;;;;;;;7.88;5.90;;;18.30;99.90;;;;;;5119758;23;20160;-95
2022/04/24 09:58:23;;;;;;;8.25;5.13;;;18.10;99.90;;;;;;5119639;23;20202;-95
2022/04/24 10:01:22;;;;;;;;;;;;;;;;;;;;;
2022/04/24 10:03:55;;;;;;;8.25;5.43;;;18.50;99.90;;;;;;5096760;23;20248;-94
2022/04/24 10:06:15;;;;;;;11.27;5.32;;;18.40;99.90;;;;;;5120385;23;20148;-94
2022/04/24 10:08:19;;;;;;;9.25;5.65;;;18.40;99.90;;;;;;5119481;23;20168;-94
2022/04/24 10:10:30;;;;;;;10.50;5.72;;;18.60;99.90;;;;;;5098064;23;20172;-94
2022/04/24 10:12:43;;;;;;;8.27;5.68;;;18.50;99.90;;;;;;5096551;23;20204;-95
2022/04/24 10:15:11;;;;;;;7.57;6.22;;;18.00;99.90;;;;;;5097425;23;20231;-95
2022/04/24 10:18:00;;;;;;;7.47;6.20;;;17.60;99.90;;;;;;5121280;23;20156;-96
2022/04/24 10:20:42;;;;;;;7.18;5.30;;;17.30;99.90;;;;;;5096935;23;20715;-95
2022/04/24 10:23:14;;;;;;;8.52;5.40;;;17.30;99.90;;;;;;5120011;23;20160;-94
2022/04/24 10:25:16;;;;;;;7.07;5.43;;;17.30;99.90;;;;;;5070932;23;20161;-96
2022/04/24 10:27:17;;;;;;;10.93;5.57;;;17.50;99.90;;;;;;5106337;23;20164;-94
2022/04/24 10:29:48;;;;;;;7.55;5.68;;;17.60;99.90;;;;;;5120424;23;20148;-94
2022/04/24 10:32:09;;;;;;;8.73;5.22;;;17.70;99.90;;;;;;5109935;23;20152;-94
2022/04/24 10:34:16;;;;;;;7.28;5.30;;;17.70;99.90;;;;;;5120125;23;20214;-95
2022/04/24 10:36:20;;;;;;;9.02;5.20;;;17.80;99.90;;;;;;5119142;23;20148;-95
2022/04/24 10:38:53;;;;;;;8.07;5.50;;;17.80;99.90;;;;;;5118749;23;20219;-94
2022/04/24 10:41:06;;;;;;;9.10;4.47;;;17.90;99.90;;;;;;5094181;23;20182;-93
2022/04/24 10:43:10;;;;;;;10.68;5.55;;;17.80;99.90;;;;;;5118264;23;20471;-93
2022/04/24 10:45:32;;;;;;;8.75;5.80;;;18.00;99.90;;;;;;5093659;23;20717;-95
2022/04/24 10:48:15;;;;;;;6.32;4.63;;;18.10;99.90;;;;;;5094262;23;20627;-96
2022/04/24 10:50:20;;;;;;;7.80;4.70;;;18.30;99.90;;;;;;5069283;23;20243;-94
2022/04/24 10:52:44;;;;;;;7.85;4.80;;;18.00;99.90;;;;;;5021621;23;20258;-96
2022/04/24 10:54:56;;;;;;;9.40;4.65;;;18.20;99.90;;;;;;5143434;23;20148;-96
2022/04/24 10:57:00;;;;;;;7.32;5.13;;;18.20;99.90;;;;;;5118746;23;20156;-94
2022/04/24 10:59:32;;;;;;;7.85;5.00;;;18.30;99.90;;;;;;5120635;23;20653;-94
2022/04/24 11:01:36;;;;;;;9.38;5.13;;;18.10;99.90;;;;;;5118644;23;20159;-94
2022/04/24 11:04:06;;;;;;;6.13;4.65;;;18.10;99.90;;;;;;5094609;23;20153;-93
2022/04/24 11:06:34;;;;;;;6.80;4.97;;;18.30;99.90;;;;;;5094922;23;20160;-94
2022/04/24 11:08:46;;;;;;;6.65;4.65;;;18.20;99.90;;;;;;5094275;23;20251;-94
2022/04/24 11:11:15;;;;;;;9.20;4.80;;;18.30;99.90;;;;;;5094395;23;20152;-95
2022/04/24 11:13:19;;;;;;;8.45;4.68;;;18.40;99.90;;;;;;5094927;23;20191;-94
2022/04/24 11:15:23;;;;;;;8.73;4.45;;;18.60;99.90;;;;;;5119176;23;20152;-94